createdAt,value
2019-03-01T00:00:06.527Z,49.23
2019-03-01T00:02:35.411Z,59.03
2019-03-01T00:05:06.051Z,46.70
2019-03-01T00:07:38.528Z,59.80
2019-03-01T00:10:10.926Z,52.53
2019-03-01T00:12:43.346Z,47.70
2019-03-01T00:15:15.701Z,48.73
2019-03-01T00:17:46.307Z,59.53
2019-03-01T00:20:18.720Z,54.90
2019-03-01T00:22:51.257Z,52.30
2019-03-01T00:25:23.628Z,55.27
2019-03-01T00:27:55.994Z,53.60
2019-03-01T00:30:28.322Z,55.00
2019-03-01T00:33:00.768Z,60.77
2019-03-01T00:35:29.234Z,67.53
2019-03-01T00:37:59.645Z,56.97
2019-03-01T00:40:30.107Z,55.17
2019-03-01T00:43:02.386Z,56.13
2019-03-01T00:45:29.025Z,60.57
2019-03-01T00:47:55.603Z,56.23
2019-03-01T00:50:22.268Z,60.90
2019-03-01T00:52:49.137Z,60.63
2019-03-01T00:55:15.779Z,63.20
2019-03-01T00:57:42.456Z,59.87
2019-03-01T01:00:14.943Z,55.07
2019-03-01T01:02:41.548Z,70.97
2019-03-01T01:05:08.563Z,60.43
2019-03-01T01:07:35.289Z,51.03
2019-03-01T01:10:03.206Z,65.03
2019-03-01T01:12:29.964Z,58.27
2019-03-01T01:14:56.539Z,57.90
2019-03-01T01:17:23.232Z,62.87
2019-03-01T01:19:52.895Z,65.73
2019-03-01T01:22:19.575Z,55.23
2019-03-01T01:24:46.234Z,57.20
2019-03-01T01:27:17.664Z,58.07
2019-03-01T01:29:52.608Z,53.90
2019-03-01T01:32:20.957Z,60.20
2019-03-01T01:34:47.544Z,55.60
2019-03-01T01:37:14.212Z,58.83
2019-03-01T01:39:40.766Z,53.97
2019-03-01T01:42:07.650Z,56.63
2019-03-01T01:44:34.431Z,60.43
2019-03-01T01:47:01.160Z,61.47
2019-03-01T01:49:27.731Z,59.80
2019-03-01T01:51:54.356Z,57.47
2019-03-01T01:54:20.926Z,54.07
2019-03-01T01:56:47.688Z,58.67
2019-03-01T01:59:14.524Z,58.07
2019-03-01T02:02:38.729Z,65.40
2019-03-01T02:05:06.194Z,63.87
2019-03-01T02:07:33.239Z,54.00
2019-03-01T02:10:00.334Z,62.60
2019-03-01T02:12:27.199Z,57.10
2019-03-01T02:15:32.255Z,62.23
2019-03-01T02:17:59.106Z,66.03
2019-03-01T02:20:25.967Z,62.10
2019-03-01T02:22:52.679Z,60.07
2019-03-01T02:25:19.523Z,61.53
2019-03-01T02:27:47.376Z,60.43
2019-03-01T02:30:19.437Z,58.47
2019-03-01T02:32:46.060Z,65.43
2019-03-01T02:35:16.531Z,63.47
2019-03-01T02:37:43.445Z,63.43
2019-03-01T02:40:13.487Z,58.43
2019-03-01T02:42:41.590Z,61.57
2019-03-01T02:45:15.081Z,66.03
2019-03-01T02:47:45.164Z,63.23
2019-03-01T02:50:15.814Z,56.50
2019-03-01T02:52:42.579Z,63.33
2019-03-01T02:55:14.784Z,59.03
2019-03-01T02:57:41.659Z,64.97
2019-03-01T03:00:14.245Z,60.63
2019-03-01T03:02:41.205Z,62.70
2019-03-01T03:05:08.178Z,59.83
2019-03-01T03:07:36.804Z,57.33
2019-03-01T03:10:06.499Z,63.90
2019-03-01T03:12:33.176Z,63.73
2019-03-01T03:14:59.869Z,49.67
2019-03-01T03:17:26.603Z,60.67
2019-03-01T03:19:53.246Z,55.23
2019-03-01T03:22:19.846Z,61.27
2019-03-01T03:24:46.415Z,58.37
2019-03-01T03:27:13.002Z,61.13
2019-03-01T03:29:39.890Z,62.17
2019-03-01T03:32:06.529Z,55.50
2019-03-01T03:34:33.191Z,57.70
2019-03-01T03:36:59.950Z,59.03
2019-03-01T03:39:26.632Z,61.03
2019-03-01T03:41:53.199Z,53.47
2019-03-01T03:44:20.002Z,63.33
2019-03-01T03:46:46.648Z,63.07
2019-03-01T03:49:13.253Z,52.67
2019-03-01T03:51:39.830Z,56.37
2019-03-01T03:54:06.441Z,61.13
2019-03-01T03:56:33.303Z,64.80
2019-03-01T03:59:03.290Z,66.50
2019-03-01T04:01:30.132Z,70.30
2019-03-01T04:03:56.917Z,62.40
2019-03-01T04:06:24.616Z,62.67
2019-03-01T04:08:51.174Z,61.13
2019-03-01T04:11:17.762Z,61.57
2019-03-01T04:13:44.300Z,68.77
2019-03-01T04:16:11.016Z,63.73
2019-03-01T04:18:37.790Z,60.43
2019-03-01T04:21:04.489Z,66.13
2019-03-01T04:23:31.156Z,58.30
2019-03-01T04:25:57.698Z,60.63
2019-03-01T04:28:24.369Z,54.93
2019-03-01T04:30:50.957Z,61.83
2019-03-01T04:33:18.869Z,55.17
2019-03-01T04:35:45.544Z,60.90
2019-03-01T04:38:12.162Z,57.47
2019-03-01T04:40:38.929Z,63.87
2019-03-01T04:43:05.486Z,55.37
2019-03-01T04:45:32.134Z,70.57
2019-03-01T04:47:58.738Z,60.43
2019-03-01T04:50:28.091Z,61.80
2019-03-01T04:52:54.687Z,57.07
2019-03-01T04:55:24.875Z,59.63
2019-03-01T04:57:51.555Z,59.10
2019-03-01T05:00:22.665Z,57.73
2019-03-01T05:02:49.585Z,60.20
2019-03-01T05:05:19.556Z,61.47
2019-03-01T05:07:46.458Z,55.10
2019-03-01T05:10:15.313Z,62.60
2019-03-01T05:12:42.373Z,58.90
2019-03-01T05:15:14.787Z,69.10
2019-03-01T05:17:42.241Z,61.83
2019-03-01T05:20:09.177Z,61.30
2019-03-01T05:22:35.727Z,62.50
2019-03-01T05:25:06.084Z,68.40
2019-03-01T05:27:32.725Z,68.73
2019-03-01T05:29:59.280Z,67.23
2019-03-01T05:32:25.896Z,73.23
2019-03-01T05:34:52.459Z,77.37
2019-03-01T05:37:19.014Z,62.90
2019-03-01T05:39:45.632Z,66.90
2019-03-01T05:42:16.467Z,67.10
2019-03-01T05:44:43.338Z,76.47
2019-03-01T05:47:10.759Z,68.53
2019-03-01T05:49:39.035Z,65.33
2019-03-01T05:52:07.553Z,56.70
2019-03-01T05:54:35.015Z,68.67
2019-03-01T05:57:02.882Z,64.20
2019-03-01T05:59:30.332Z,72.90
2019-03-01T06:02:03.342Z,65.27
2019-03-01T06:04:38.662Z,65.87
2019-03-01T06:07:11.302Z,67.60
2019-03-01T06:09:43.934Z,65.27
2019-03-01T06:12:16.231Z,65.40
2019-03-01T06:14:48.677Z,65.10
2019-03-01T06:17:20.977Z,73.33
2019-03-01T06:19:55.476Z,64.53
2019-03-01T06:22:27.882Z,73.07
2019-03-01T06:24:58.347Z,73.63
2019-03-01T06:27:30.772Z,70.20
2019-03-01T06:30:03.141Z,70.07
2019-03-01T06:32:33.899Z,67.90
2019-03-01T06:35:07.588Z,68.40
2019-03-01T06:37:40.020Z,71.90
2019-03-01T06:40:12.432Z,60.23
2019-03-01T06:42:42.951Z,77.27
2019-03-01T06:45:13.390Z,63.37
2019-03-01T06:47:44.504Z,62.63
2019-03-01T06:50:13.610Z,59.93
2019-03-01T06:52:40.325Z,61.93
2019-03-01T06:55:12.675Z,62.27
2019-03-01T06:57:39.244Z,80.83
2019-03-01T07:00:10.161Z,65.00
2019-03-01T07:02:38.762Z,62.00
2019-03-01T07:05:05.672Z,65.07
2019-03-01T07:07:32.271Z,68.43
2019-03-01T07:09:58.838Z,59.90
2019-03-01T07:12:25.465Z,73.57
2019-03-01T07:14:52.035Z,65.67
2019-03-01T07:17:18.759Z,72.70
2019-03-01T07:19:45.340Z,70.30
2019-03-01T07:22:12.037Z,60.93
2019-03-01T07:24:38.678Z,69.87
2019-03-01T07:27:05.482Z,70.53
2019-03-01T07:29:32.219Z,51.63
2019-03-01T07:31:58.859Z,58.07
2019-03-01T07:34:26.116Z,56.63
2019-03-01T07:36:52.699Z,64.03
2019-03-01T07:39:19.324Z,61.33
2019-03-01T07:41:45.925Z,64.97
2019-03-01T07:44:13.812Z,71.40
2019-03-01T07:46:40.632Z,53.43
2019-03-01T07:49:07.241Z,54.23
2019-03-01T07:51:35.922Z,61.27
2019-03-01T07:54:02.790Z,58.33
2019-03-01T07:56:29.595Z,63.63
2019-03-01T07:58:57.478Z,56.90
2019-03-01T08:01:25.740Z,54.07
2019-03-01T08:03:53.834Z,49.43
2019-03-01T08:06:23.635Z,51.20
2019-03-01T08:08:51.310Z,49.27
2019-03-01T08:11:17.997Z,44.60
2019-03-01T08:13:44.713Z,43.70
2019-03-01T08:16:11.410Z,44.00
2019-03-01T08:18:44.262Z,45.20
2019-03-01T08:21:10.279Z,38.97
2019-03-01T08:23:38.029Z,39.93
2019-03-01T08:26:04.626Z,35.43
2019-03-01T08:28:32.772Z,39.30
2019-03-01T08:30:59.451Z,35.50
2019-03-01T08:33:26.015Z,44.47
2019-03-01T08:35:52.757Z,45.47
2019-03-01T08:38:19.322Z,42.50
2019-03-01T08:40:49.840Z,36.03
2019-03-01T08:43:17.447Z,42.17
2019-03-01T08:45:44.087Z,39.63
2019-03-01T08:48:10.695Z,43.53
2019-03-01T08:50:37.351Z,43.57
2019-03-01T08:53:04.227Z,38.13
2019-03-01T08:55:31.210Z,47.50
2019-03-01T08:57:59.468Z,37.37
2019-03-01T09:00:32.397Z,43.93
2019-03-01T09:03:04.930Z,44.33
2019-03-01T09:05:32.038Z,39.07
2019-03-01T09:07:58.739Z,37.93
2019-03-01T09:10:29.244Z,40.33
2019-03-01T09:12:54.298Z,41.73
2019-03-01T09:15:21.171Z,38.27
2019-03-01T09:17:47.867Z,33.83
2019-03-01T09:20:15.092Z,39.17
2019-03-01T09:22:42.630Z,39.80
2019-03-01T09:25:12.475Z,38.47
2019-03-01T09:27:39.290Z,41.63
2019-03-01T09:30:11.681Z,41.83
2019-03-01T09:32:38.538Z,32.60
2019-03-01T09:35:12.810Z,34.73
2019-03-01T09:37:39.623Z,34.53
2019-03-01T09:40:06.535Z,35.40
2019-03-01T09:42:33.312Z,34.17
2019-03-01T09:45:06.110Z,30.83
2019-03-01T09:47:33.563Z,41.73
2019-03-01T09:50:06.295Z,30.67
2019-03-01T09:52:32.990Z,35.50
2019-03-01T09:54:59.557Z,31.33
2019-03-01T09:57:26.192Z,26.77
2019-03-01T09:59:53.536Z,30.43
2019-03-01T10:02:20.457Z,24.33
2019-03-01T10:04:47.010Z,37.23
2019-03-01T10:07:13.727Z,39.27
2019-03-01T10:09:43.553Z,30.93
2019-03-01T10:12:10.420Z,32.10
2019-03-01T10:14:37.099Z,26.80
2019-03-01T10:17:03.687Z,23.53
2019-03-01T10:19:30.381Z,20.40
2019-03-01T10:21:56.998Z,24.70
2019-03-01T10:24:23.749Z,25.47
2019-03-01T10:26:50.436Z,23.90
2019-03-01T10:29:17.026Z,25.50
2019-03-01T10:31:43.648Z,18.60
2019-03-01T10:34:10.525Z,20.80
2019-03-01T10:36:37.157Z,22.47
2019-03-01T10:39:09.563Z,20.73
2019-03-01T10:41:36.337Z,17.30
2019-03-01T10:44:03.198Z,19.03
2019-03-01T10:46:29.931Z,25.17
2019-03-01T10:48:56.659Z,19.80
2019-03-01T10:51:23.199Z,22.27
2019-03-01T10:53:49.814Z,17.77
2019-03-01T10:56:16.383Z,18.00
2019-03-01T10:58:42.989Z,25.53
2019-03-01T11:01:09.719Z,28.77
2019-03-01T11:03:36.566Z,19.90
2019-03-01T11:06:03.632Z,26.70
2019-03-01T11:08:30.295Z,22.97
2019-03-01T11:10:56.881Z,23.73
2019-03-01T11:13:23.456Z,23.43
2019-03-01T11:15:50.166Z,19.53
2019-03-01T11:18:16.862Z,22.87
2019-03-01T11:20:43.769Z,24.60
2019-03-01T11:23:10.603Z,24.13
2019-03-01T11:25:37.272Z,21.83
2019-03-01T11:28:04.922Z,24.10
2019-03-01T11:30:34.827Z,26.90
2019-03-01T11:33:01.697Z,23.30
2019-03-01T11:35:28.686Z,25.97
2019-03-01T11:37:55.428Z,23.07
2019-03-01T11:40:27.761Z,18.50
2019-03-01T11:42:54.622Z,25.90
2019-03-01T11:45:21.591Z,22.30
2019-03-01T11:47:48.382Z,23.50
2019-03-01T11:50:19.965Z,23.43
2019-03-01T11:52:46.737Z,28.63
2019-03-01T11:55:14.205Z,73.50
2019-03-01T11:57:41.224Z,29.93
2019-03-01T12:01:04.880Z,36.33
2019-03-01T12:03:31.664Z,32.90
2019-03-01T12:05:58.263Z,24.73
2019-03-01T12:08:24.871Z,24.87
2019-03-01T12:10:51.538Z,33.50
2019-03-01T12:13:18.110Z,35.50
2019-03-01T12:15:44.816Z,25.70
2019-03-01T12:18:11.393Z,28.17
2019-03-01T12:20:39.979Z,25.40
2019-03-01T12:23:06.723Z,20.73
2019-03-01T12:25:33.276Z,20.70
2019-03-01T12:28:00.081Z,24.07
2019-03-01T12:30:26.858Z,31.10
2019-03-01T12:32:53.824Z,19.67
2019-03-01T12:35:20.551Z,19.77
2019-03-01T12:37:47.357Z,27.27
2019-03-01T12:40:22.104Z,22.00
2019-03-01T12:42:48.770Z,24.63
2019-03-01T12:45:15.655Z,27.20
2019-03-01T12:47:42.747Z,37.07
2019-03-01T12:50:12.857Z,23.07
2019-03-01T12:52:39.988Z,19.63
2019-03-01T12:55:12.421Z,18.20
2019-03-01T12:57:39.259Z,17.20
2019-03-01T13:00:11.882Z,17.00
2019-03-01T13:02:38.967Z,20.70
2019-03-01T13:05:10.187Z,19.93
2019-03-01T13:07:37.073Z,25.50
2019-03-01T13:10:09.518Z,26.33
2019-03-01T13:12:36.187Z,22.37
2019-03-01T13:15:05.876Z,20.90
2019-03-01T13:17:37.242Z,22.60
2019-03-01T13:20:07.995Z,25.80
2019-03-01T13:22:34.970Z,31.80
2019-03-01T13:25:02.093Z,20.37
2019-03-01T13:27:28.875Z,30.87
2019-03-01T13:29:58.756Z,27.57
2019-03-01T13:32:24.086Z,21.73
2019-03-01T13:34:50.664Z,17.13
2019-03-01T13:37:20.166Z,25.43
2019-03-01T13:39:48.791Z,21.57
2019-03-01T13:42:16.297Z,29.70
2019-03-01T13:44:42.842Z,19.40
2019-03-01T13:47:09.493Z,27.13
2019-03-01T13:49:36.239Z,25.03
2019-03-01T13:52:03.234Z,19.77
2019-03-01T13:54:31.078Z,26.60
2019-03-01T13:56:57.848Z,23.67
2019-03-01T13:59:24.426Z,26.37
2019-03-01T14:01:51.073Z,22.63
2019-03-01T14:04:17.747Z,28.20
2019-03-01T14:06:44.387Z,19.30
2019-03-01T14:09:12.091Z,20.77
2019-03-01T14:11:38.843Z,25.40
2019-03-01T14:14:05.426Z,26.13
2019-03-01T14:16:32.022Z,26.50
2019-03-01T14:18:58.800Z,20.57
2019-03-01T14:21:25.375Z,16.47
2019-03-01T14:23:54.161Z,18.20
2019-03-01T14:26:20.824Z,15.27
2019-03-01T14:28:47.747Z,13.80
2019-03-01T14:31:14.488Z,16.90
2019-03-01T14:33:41.080Z,15.73
2019-03-01T14:36:07.737Z,15.93
2019-03-01T14:38:34.577Z,20.00
2019-03-01T14:41:01.258Z,10.03
2019-03-01T14:43:29.067Z,10.90
2019-03-01T14:45:55.974Z,6.67
2019-03-01T14:48:23.716Z,8.70
2019-03-01T14:50:50.309Z,7.30
2019-03-01T14:53:17.055Z,7.23
2019-03-01T14:55:49.414Z,9.17
2019-03-01T14:58:22.333Z,8.10
2019-03-01T15:00:56.033Z,6.13
2019-03-01T15:03:24.639Z,6.93
2019-03-01T15:05:51.205Z,6.30
2019-03-01T15:08:17.939Z,10.50
2019-03-01T15:10:47.765Z,18.03
2019-03-01T15:13:14.666Z,7.80
2019-03-01T15:15:43.226Z,8.93
2019-03-01T15:18:10.111Z,7.87
2019-03-01T15:20:36.848Z,19.50
2019-03-01T15:23:03.746Z,10.53
2019-03-01T15:25:30.797Z,14.17
2019-03-01T15:27:57.642Z,16.57
2019-03-01T15:30:24.333Z,23.83
2019-03-01T15:33:08.471Z,7.90
2019-03-01T15:35:36.409Z,8.67
2019-03-01T15:38:03.632Z,7.33
2019-03-01T15:40:31.478Z,11.83
2019-03-01T15:42:58.940Z,7.77
2019-03-01T15:45:25.845Z,39.73
2019-03-01T15:47:52.722Z,11.47
2019-03-01T15:50:19.523Z,7.97
2019-03-01T15:52:49.683Z,7.07
2019-03-01T15:55:15.003Z,5.53
2019-03-01T15:57:41.888Z,8.13
2019-03-01T16:00:12.888Z,8.97
2019-03-01T16:02:40.135Z,7.40
2019-03-01T16:05:10.446Z,7.60
2019-03-01T16:07:37.441Z,6.83
2019-03-01T16:10:09.577Z,5.07
2019-03-01T16:12:36.801Z,4.00
2019-03-01T16:15:09.983Z,5.70
2019-03-01T16:17:37.385Z,13.87
2019-03-01T16:20:09.212Z,5.93
2019-03-01T16:22:36.206Z,16.07
2019-03-01T16:25:09.168Z,10.47
2019-03-01T16:27:35.963Z,7.70
2019-03-01T16:30:09.504Z,9.17
2019-03-01T16:32:36.395Z,5.60
2019-03-01T16:35:06.998Z,12.10
2019-03-01T16:37:34.027Z,4.50
2019-03-01T16:40:01.442Z,5.77
2019-03-01T16:42:28.476Z,3.10
2019-03-01T16:44:55.188Z,5.13
2019-03-01T16:47:24.834Z,5.97
2019-03-01T16:49:51.472Z,6.60
2019-03-01T16:53:14.971Z,5.67
2019-03-01T16:55:41.621Z,6.13
2019-03-01T16:58:28.283Z,7.03
2019-03-01T17:00:55.344Z,8.80
2019-03-01T17:04:18.201Z,5.90
2019-03-01T17:06:45.400Z,7.47
2019-03-01T17:09:15.459Z,6.10
2019-03-01T17:11:42.448Z,5.60
2019-03-01T17:14:09.170Z,6.77
2019-03-01T17:16:35.850Z,6.33
2019-03-01T17:19:02.760Z,6.33
2019-03-01T17:21:29.474Z,7.73
2019-03-01T17:23:56.160Z,5.47
2019-03-01T17:26:22.723Z,6.57
2019-03-01T17:28:49.883Z,10.37
2019-03-01T17:31:17.923Z,7.80
2019-03-01T17:33:48.837Z,5.67
2019-03-01T17:36:16.798Z,8.73
2019-03-01T17:38:45.975Z,10.87
2019-03-01T17:41:11.385Z,6.33
2019-03-01T17:43:39.855Z,5.83
2019-03-01T17:47:06.126Z,7.53
2019-03-01T17:49:32.948Z,8.83
2019-03-01T17:52:00.136Z,7.43
2019-03-01T17:54:26.836Z,9.87
2019-03-01T17:56:54.051Z,11.27
2019-03-01T17:59:23.328Z,8.50
2019-03-01T18:01:50.106Z,7.17
2019-03-01T18:05:12.998Z,11.23
2019-03-01T18:07:43.048Z,7.73
2019-03-01T18:10:12.967Z,7.90
2019-03-01T18:12:39.674Z,5.60
2019-03-01T18:15:12.508Z,4.97
2019-03-01T18:17:40.169Z,6.80
2019-03-01T18:20:10.924Z,7.17
2019-03-01T18:22:38.923Z,10.07
2019-03-01T18:25:10.416Z,8.27
2019-03-01T18:27:37.174Z,6.77
2019-03-01T18:30:10.726Z,11.67
2019-03-01T18:32:37.560Z,6.40
2019-03-01T18:35:11.284Z,6.83
2019-03-01T18:37:38.753Z,8.70
2019-03-01T18:40:13.445Z,12.33
2019-03-01T18:42:39.180Z,8.93
2019-03-01T18:45:11.563Z,10.43
2019-03-01T18:47:41.370Z,17.33
2019-03-01T18:50:12.894Z,5.93
2019-03-01T18:52:39.817Z,7.43
2019-03-01T18:55:09.627Z,5.70
2019-03-01T18:57:38.590Z,14.77
2019-03-01T19:00:11.002Z,10.87
2019-03-01T19:02:43.618Z,8.87
2019-03-01T19:05:11.344Z,5.47
2019-03-01T19:07:38.339Z,7.40
2019-03-01T19:10:10.277Z,9.10
2019-03-01T19:12:36.967Z,16.20
2019-03-01T19:15:12.152Z,9.93
2019-03-01T19:17:40.704Z,6.67
2019-03-01T19:20:12.262Z,12.97
2019-03-01T19:22:39.465Z,7.60
2019-03-01T19:25:09.552Z,6.43
2019-03-01T19:27:38.247Z,6.53
2019-03-01T19:30:13.756Z,5.00
2019-03-01T19:32:39.472Z,6.27
2019-03-01T19:35:08.348Z,6.13
2019-03-01T19:37:37.766Z,5.13
2019-03-01T19:40:12.979Z,5.30
2019-03-01T19:42:39.838Z,4.67
2019-03-01T19:45:11.668Z,6.13
2019-03-01T19:47:38.239Z,7.23
2019-03-01T19:50:09.988Z,8.50
2019-03-01T19:52:36.666Z,4.47
2019-03-01T19:55:08.045Z,3.67
2019-03-01T19:57:37.170Z,5.50
2019-03-01T20:00:09.542Z,8.77
2019-03-01T20:02:38.464Z,9.53
2019-03-01T20:05:10.497Z,6.53
2019-03-01T20:07:37.502Z,5.80
2019-03-01T20:10:11.647Z,4.70
2019-03-01T20:12:40.523Z,7.13
2019-03-01T20:15:15.141Z,4.57
2019-03-01T20:17:44.571Z,2.93
2019-03-01T20:20:15.131Z,3.57
2019-03-01T20:22:41.812Z,8.60
2019-03-01T20:25:16.211Z,5.73
2019-03-01T20:27:43.864Z,8.17
2019-03-01T20:30:16.325Z,6.70
2019-03-01T20:32:43.403Z,6.80
2019-03-01T20:35:12.821Z,38.93
2019-03-01T20:37:40.164Z,10.83
2019-03-01T20:40:12.024Z,10.83
2019-03-01T20:42:42.039Z,21.80
2019-03-01T20:45:16.734Z,22.70
2019-03-01T20:47:47.225Z,13.97
2019-03-01T20:50:15.605Z,14.10
2019-03-01T20:52:42.917Z,7.20
2019-03-01T20:55:11.416Z,10.87
2019-03-01T20:57:38.092Z,9.93
2019-03-01T21:00:10.478Z,7.07
2019-03-01T21:02:39.130Z,10.30
2019-03-01T21:05:09.829Z,9.60
2019-03-01T21:07:36.601Z,10.40
2019-03-01T21:10:08.995Z,6.93
2019-03-01T21:12:36.675Z,5.33
2019-03-01T21:15:07.476Z,7.00
2019-03-01T21:17:34.170Z,12.67
2019-03-01T21:20:01.080Z,9.93
2019-03-01T21:22:27.900Z,9.27
2019-03-01T21:24:54.598Z,6.17
2019-03-01T21:27:25.934Z,6.90
2019-03-01T21:29:51.736Z,7.10
2019-03-01T21:32:18.514Z,7.60
2019-03-01T21:34:46.645Z,5.97
2019-03-01T21:37:13.358Z,7.37
2019-03-01T21:39:40.033Z,7.47
2019-03-01T21:42:07.105Z,6.30
2019-03-01T21:44:33.907Z,7.50
2019-03-01T21:47:00.868Z,14.07
2019-03-01T21:49:27.900Z,10.40
2019-03-01T21:51:55.135Z,8.83
2019-03-01T21:54:22.791Z,12.70
2019-03-01T21:56:55.826Z,8.83
2019-03-01T21:59:18.721Z,8.33
2019-03-01T22:01:45.379Z,5.77
2019-03-01T22:04:12.418Z,11.17
2019-03-01T22:06:39.084Z,10.23
2019-03-01T22:09:06.284Z,8.03
2019-03-01T22:11:34.938Z,7.97
2019-03-01T22:14:01.744Z,5.63
2019-03-01T22:16:32.777Z,8.77
2019-03-01T22:18:58.702Z,8.03
2019-03-01T22:21:27.433Z,8.27
2019-03-01T22:23:56.041Z,10.77
2019-03-01T22:26:22.665Z,4.97
2019-03-01T22:28:49.334Z,8.03
2019-03-01T22:31:15.985Z,9.47
2019-03-01T22:33:42.566Z,11.10
2019-03-01T22:36:09.132Z,12.23
2019-03-01T22:38:37.621Z,14.23
2019-03-01T22:41:04.838Z,9.50
2019-03-01T22:43:31.520Z,11.63
2019-03-01T22:45:58.124Z,10.93
2019-03-01T22:48:24.906Z,18.43
2019-03-01T22:50:51.526Z,8.03
2019-03-01T22:53:18.140Z,10.63
2019-03-01T22:55:44.814Z,6.83
2019-03-01T22:58:11.459Z,8.90
2019-03-01T23:00:43.888Z,8.70
2019-03-01T23:03:12.098Z,8.10
2019-03-01T23:05:39.217Z,9.10
2019-03-01T23:08:06.372Z,8.43
2019-03-01T23:10:32.951Z,9.00
2019-03-01T23:12:59.661Z,12.67
2019-03-01T23:15:26.252Z,12.70
2019-03-01T23:17:52.935Z,11.10
2019-03-01T23:20:26.293Z,12.37
2019-03-01T23:22:50.422Z,8.83
2019-03-01T23:25:17.024Z,5.30
2019-03-01T23:27:43.650Z,5.93
2019-03-01T23:30:10.524Z,4.20
2019-03-01T23:32:37.556Z,7.43
2019-03-01T23:35:04.747Z,6.80
2019-03-01T23:37:31.396Z,5.17
2019-03-01T23:40:00.932Z,6.00
2019-03-01T23:42:31.185Z,5.60
2019-03-01T23:44:57.831Z,8.43
2019-03-01T23:47:24.494Z,7.50
2019-03-01T23:49:51.139Z,5.80
2019-03-01T23:52:19.631Z,7.27
2019-03-01T23:54:47.831Z,4.90
2019-03-01T23:57:14.729Z,4.50
2019-03-01T23:59:41.448Z,5.70
